Time;durP1;ratioP1;P1;durP2;ratioP2;P2;SDS_P1;SDS_P2;PMS_P1;PMS_P2;Temp;Humidity;BMP_temperature;BMP_pressure;BME280_temperature;BME280_humidity;BME280_pressure;Samples;Min_cycle;Max_cycle;Signal;HPM_P1;HPM_P2
2021/03/15 00:02:07;;;;;;;3.53;2.20;;;5.80;99.90;;;;;;5074636;28;20746;-67
2021/03/15 00:04:34;;;;;;;5.38;2.38;;;5.80;99.90;;;;;;5074923;28;20298;-67
2021/03/15 00:07:01;;;;;;;4.88;2.08;;;5.80;99.90;;;;;;5074516;28;20293;-67
2021/03/15 00:09:27;;;;;;;4.50;2.33;;;5.80;99.90;;;;;;5074678;28;20202;-67
2021/03/15 00:11:54;;;;;;;2.53;2.25;;;5.80;99.90;;;;;;5074694;28;20299;-67
2021/03/15 00:14:20;;;;;;;5.93;2.60;;;5.80;99.90;;;;;;5074751;28;20209;-67
2021/03/15 00:16:47;;;;;;;3.63;2.42;;;5.80;99.90;;;;;;5074306;28;20203;-67
2021/03/15 00:19:13;;;;;;;3.42;2.35;;;5.80;99.90;;;;;;5074687;28;20294;-67
2021/03/15 00:21:40;;;;;;;2.40;2.17;;;5.80;99.90;;;;;;5074306;28;20210;-67
2021/03/15 00:24:08;;;;;;;4.32;2.50;;;5.70;99.90;;;;;;5074468;28;20209;-67
2021/03/15 00:26:35;;;;;;;2.80;2.55;;;5.70;99.90;;;;;;5074016;28;20684;-67
2021/03/15 00:29:01;;;;;;;3.53;2.25;;;5.70;99.90;;;;;;5074387;28;20199;-67
2021/03/15 00:31:27;;;;;;;3.60;2.45;;;5.70;99.90;;;;;;5074266;28;20213;-67
2021/03/15 00:33:54;;;;;;;2.85;2.00;;;5.60;99.90;;;;;;5074323;28;20232;-67
2021/03/15 00:36:20;;;;;;;2.70;2.50;;;5.60;99.90;;;;;;5074088;28;20273;-67
2021/03/15 00:38:47;;;;;;;2.50;2.30;;;5.60;99.90;;;;;;5074234;28;20252;-67
2021/03/15 00:41:14;;;;;;;4.40;2.40;;;5.50;99.90;;;;;;5074013;28;20211;-67
2021/03/15 00:43:40;;;;;;;7.45;3.10;;;5.50;99.90;;;;;;5074442;28;20287;-67
2021/03/15 00:46:06;;;;;;;3.75;2.25;;;5.50;99.90;;;;;;5073648;28;20612;-67
2021/03/15 00:48:33;;;;;;;1.98;1.75;;;5.50;99.90;;;;;;5074019;28;20310;-67
2021/03/15 00:50:59;;;;;;;3.85;2.05;;;5.50;99.90;;;;;;5073751;28;20203;-67
2021/03/15 00:53:25;;;;;;;4.95;2.60;;;5.50;99.90;;;;;;5073978;28;20225;-67
2021/03/15 00:55:52;;;;;;;3.05;1.92;;;5.50;99.90;;;;;;5073756;28;20203;-67
2021/03/15 00:58:19;;;;;;;3.08;2.25;;;5.50;99.90;;;;;;5073799;28;20202;-67
2021/03/15 01:00:49;;;;;;;3.08;2.20;;;5.50;99.90;;;;;;5073941;28;20293;-67
2021/03/15 01:03:15;;;;;;;6.15;2.60;;;5.50;99.90;;;;;;5073444;28;20234;-67
2021/03/15 01:05:44;;;;;;;3.33;2.30;;;5.50;99.90;;;;;;5073831;28;20207;-67
2021/03/15 01:08:12;;;;;;;1.90;1.67;;;5.50;99.90;;;;;;5073679;28;20209;-67
2021/03/15 01:10:41;;;;;;;3.33;2.13;;;5.60;99.90;;;;;;5073809;28;20247;-67
2021/03/15 01:13:08;;;;;;;3.47;2.70;;;5.60;99.90;;;;;;5073531;28;20595;-67
2021/03/15 01:15:36;;;;;;;2.58;2.30;;;5.50;99.90;;;;;;5073749;28;20213;-67
2021/03/15 01:18:03;;;;;;;6.45;2.40;;;5.50;99.90;;;;;;5073546;28;20298;-67
2021/03/15 01:20:30;;;;;;;4.18;2.35;;;5.50;99.90;;;;;;5073666;28;20288;-67
2021/03/15 01:22:57;;;;;;;3.47;2.10;;;5.50;99.90;;;;;;5073520;28;20223;-67
2021/03/15 01:25:30;;;;;;;2.10;1.80;;;5.50;99.90;;;;;;5073575;28;20557;-67
2021/03/15 01:27:56;;;;;;;8.23;2.72;;;5.50;99.90;;;;;;5073374;28;20684;-67
2021/03/15 01:30:25;;;;;;;3.30;2.28;;;5.50;99.90;;;;;;5073545;28;20244;-67
2021/03/15 01:32:53;;;;;;;4.07;2.33;;;5.50;99.90;;;;;;5073163;28;20696;-67
2021/03/15 01:35:19;;;;;;;4.55;2.70;;;5.50;99.90;;;;;;5073499;28;20251;-67
2021/03/15 01:37:45;;;;;;;5.60;2.40;;;5.50;99.90;;;;;;5073516;28;20208;-67
2021/03/15 01:40:13;;;;;;;3.08;2.53;;;5.50;99.90;;;;;;5073441;28;20293;-67
2021/03/15 01:42:39;;;;;;;3.90;2.22;;;5.40;99.90;;;;;;5073315;28;20232;-67
2021/03/15 01:45:07;;;;;;;3.05;2.10;;;5.30;99.90;;;;;;5073353;28;20245;-67
2021/03/15 01:47:33;;;;;;;3.47;2.45;;;5.30;99.90;;;;;;5073233;28;20206;-67
2021/03/15 01:50:02;;;;;;;2.95;2.10;;;5.20;99.90;;;;;;5073199;28;20202;-67
2021/03/15 01:52:28;;;;;;;5.63;3.05;;;5.20;99.90;;;;;;5073184;28;20238;-67
2021/03/15 01:54:55;;;;;;;3.50;2.50;;;5.10;99.90;;;;;;5073423;28;20289;-67
2021/03/15 01:57:21;;;;;;;4.38;2.78;;;5.10;99.90;;;;;;5072939;28;20203;-67
2021/03/15 01:59:47;;;;;;;4.25;2.63;;;5.00;99.90;;;;;;5072998;28;20229;-67
2021/03/15 02:02:14;;;;;;;5.05;2.63;;;5.10;99.90;;;;;;5073102;28;20364;-69
2021/03/15 02:04:40;;;;;;;7.13;2.92;;;5.00;99.90;;;;;;5073246;28;20199;-69
2021/03/15 02:07:08;;;;;;;3.17;2.13;;;5.10;99.90;;;;;;5073493;28;20198;-69
2021/03/15 02:09:34;;;;;;;4.10;2.75;;;5.10;99.90;;;;;;5077138;28;20347;-69
2021/03/15 02:12:18;;;;;;;4.28;2.80;;;5.10;99.90;;;;;;5076957;28;20310;-67
2021/03/15 02:14:55;;;;;;;4.60;2.83;;;5.20;99.90;;;;;;5077050;28;20256;-67
2021/03/15 02:17:31;;;;;;;3.50;2.40;;;5.10;99.90;;;;;;5076883;28;20300;-67
2021/03/15 02:20:09;;;;;;;3.78;2.65;;;5.20;99.90;;;;;;5076917;28;20217;-67
2021/03/15 02:22:46;;;;;;;3.05;2.65;;;5.10;99.90;;;;;;5076615;28;20226;-67
2021/03/15 02:25:52;;;;;;;5.38;2.95;;;5.00;99.90;;;;;;5076815;28;20256;-67
2021/03/15 02:28:54;;;;;;;5.30;2.97;;;4.90;99.90;;;;;;5076683;28;20241;-67
2021/03/15 02:31:37;;;;;;;8.05;2.80;;;4.90;99.90;;;;;;5076324;28;20204;-67
2021/03/15 02:34:34;;;;;;;6.00;2.58;;;4.90;99.90;;;;;;5076407;28;20187;-67
2021/03/15 02:37:05;;;;;;;4.93;2.72;;;4.90;99.90;;;;;;5076254;28;20293;-67
2021/03/15 02:39:38;;;;;;;8.35;3.25;;;4.90;99.90;;;;;;5076644;28;20191;-67
2021/03/15 02:42:10;;;;;;;4.32;2.22;;;4.90;99.90;;;;;;5076665;28;20281;-67
2021/03/15 02:44:37;;;;;;;5.47;2.63;;;4.90;99.90;;;;;;5076484;28;20191;-67
2021/03/15 02:47:11;;;;;;;2.67;2.25;;;5.00;99.90;;;;;;5076132;28;20301;-67
2021/03/15 02:49:38;;;;;;;4.20;2.63;;;4.90;99.90;;;;;;5076336;28;20207;-67
2021/03/15 02:52:08;;;;;;;2.70;2.50;;;5.00;99.90;;;;;;5075928;28;20769;-67
2021/03/15 02:54:36;;;;;;;4.38;2.50;;;5.00;99.90;;;;;;5076627;28;20203;-67
2021/03/15 02:57:03;;;;;;;2.17;1.98;;;5.00;99.90;;;;;;5075918;28;20297;-67
2021/03/15 02:59:32;;;;;;;4.53;2.58;;;5.00;99.90;;;;;;5076278;28;20236;-67
2021/03/15 03:02:00;;;;;;;4.32;2.40;;;5.00;99.90;;;;;;5075938;28;20229;-67
2021/03/15 03:04:28;;;;;;;3.70;2.42;;;5.00;99.90;;;;;;5076089;28;20209;-67
2021/03/15 03:06:56;;;;;;;5.97;2.67;;;4.90;99.90;;;;;;5075674;28;20211;-67
2021/03/15 03:09:25;;;;;;;3.92;2.40;;;4.80;99.90;;;;;;5075844;28;20211;-67
2021/03/15 03:11:52;;;;;;;5.40;2.30;;;4.90;99.90;;;;;;5075857;28;20229;-67
2021/03/15 03:14:20;;;;;;;4.03;2.15;;;4.90;99.90;;;;;;5075630;28;20293;-67
2021/03/15 03:16:49;;;;;;;5.22;2.22;;;4.90;99.90;;;;;;5075618;28;20203;-67
2021/03/15 03:19:18;;;;;;;3.45;2.30;;;4.90;99.90;;;;;;5075659;28;20297;-67
2021/03/15 03:21:46;;;;;;;2.67;2.10;;;4.70;99.90;;;;;;5075501;28;20721;-67
2021/03/15 03:24:14;;;;;;;3.58;2.17;;;4.50;99.90;;;;;;5075520;28;20211;-67
2021/03/15 03:26:44;;;;;;;5.10;2.50;;;4.50;99.90;;;;;;5075422;28;20199;-67
2021/03/15 03:29:12;;;;;;;3.92;2.58;;;4.50;99.90;;;;;;5075531;28;20211;-67
2021/03/15 03:31:41;;;;;;;3.03;2.17;;;4.40;99.90;;;;;;5075512;28;20209;-67
2021/03/15 03:34:08;;;;;;;8.05;3.40;;;4.30;99.90;;;;;;5076074;28;20619;-67
2021/03/15 03:36:35;;;;;;;3.78;2.45;;;4.40;99.90;;;;;;5075213;28;20295;-67
2021/03/15 03:39:03;;;;;;;3.25;2.20;;;4.50;99.90;;;;;;5075380;28;20209;-67
2021/03/15 03:41:29;;;;;;;4.28;2.25;;;4.60;99.90;;;;;;5075229;28;20202;-67
2021/03/15 03:43:56;;;;;;;3.72;2.42;;;4.70;99.90;;;;;;5075237;28;20227;-67
2021/03/15 03:46:22;;;;;;;3.63;2.30;;;4.70;99.90;;;;;;5074715;28;20221;-67
2021/03/15 03:48:49;;;;;;;4.03;2.72;;;4.80;99.90;;;;;;5075249;28;20299;-67
2021/03/15 03:51:19;;;;;;;3.30;2.08;;;4.80;99.90;;;;;;5075051;28;20215;-67
2021/03/15 03:53:50;;;;;;;2.80;1.75;;;4.90;99.90;;;;;;5075158;28;20219;-67
2021/03/15 03:56:23;;;;;;;2.70;2.35;;;4.90;99.90;;;;;;5074909;28;20297;-67
2021/03/15 03:58:52;;;;;;;2.35;1.85;;;5.00;99.90;;;;;;5075052;28;20230;-67
2021/03/15 04:01:27;;;;;;;2.60;1.70;;;5.10;99.90;;;;;;5074768;28;20206;-67
2021/03/15 04:03:55;;;;;;;3.40;2.20;;;5.10;99.90;;;;;;5074666;28;20210;-67
2021/03/15 04:06:26;;;;;;;1.88;1.50;;;5.20;99.90;;;;;;5074663;28;20232;-67
2021/03/15 04:08:57;;;;;;;2.78;2.20;;;5.20;99.90;;;;;;5074816;28;20199;-67
2021/03/15 04:11:26;;;;;;;7.78;2.10;;;5.20;99.90;;;;;;5074870;28;20213;-67
2021/03/15 04:13:54;;;;;;;3.03;2.00;;;5.10;99.90;;;;;;5074732;28;20310;-67
2021/03/15 04:16:31;;;;;;;3.38;2.25;;;5.20;99.90;;;;;;5074504;28;20198;-67
2021/03/15 04:19:00;;;;;;;4.90;2.10;;;5.20;99.90;;;;;;5074439;28;20229;-67
2021/03/15 04:21:29;;;;;;;3.40;1.88;;;5.20;99.90;;;;;;5074542;28;20198;-67
2021/03/15 04:23:57;;;;;;;2.08;1.50;;;5.30;99.90;;;;;;5074332;28;20222;-67
2021/03/15 04:26:24;;;;;;;5.22;2.00;;;5.30;99.90;;;;;;5074276;28;20211;-67
2021/03/15 04:28:52;;;;;;;3.13;2.28;;;5.30;99.90;;;;;;5074451;28;20234;-67
2021/03/15 04:31:19;;;;;;;2.92;1.77;;;5.30;99.90;;;;;;5073830;28;20203;-67
2021/03/15 04:33:47;;;;;;;2.17;1.98;;;5.30;99.90;;;;;;5074693;28;20241;-67
2021/03/15 04:36:15;;;;;;;2.13;1.90;;;5.30;99.90;;;;;;5073884;28;20719;-67
2021/03/15 04:38:42;;;;;;;2.03;1.80;;;5.20;99.90;;;;;;5074069;28;20213;-67
2021/03/15 04:41:10;;;;;;;2.22;1.95;;;5.10;99.90;;;;;;5074261;28;20199;-69
2021/03/15 04:43:38;;;;;;;5.80;2.17;;;5.10;99.90;;;;;;5074188;28;20276;-69
2021/03/15 04:46:05;;;;;;;2.65;2.25;;;5.10;99.90;;;;;;5073627;28;20737;-69
2021/03/15 04:48:32;;;;;;;1.95;1.60;;;5.10;99.90;;;;;;5073883;28;20668;-69
2021/03/15 04:51:02;;;;;;;3.05;1.92;;;5.10;99.90;;;;;;5073751;28;20207;-69
2021/03/15 04:53:29;;;;;;;2.60;2.03;;;5.00;99.90;;;;;;5073733;28;20261;-69
2021/03/15 04:55:58;;;;;;;4.50;2.38;;;5.10;99.90;;;;;;5073716;28;20203;-70
2021/03/15 04:58:26;;;;;;;3.90;1.70;;;5.10;99.90;;;;;;5073925;28;20230;-69
2021/03/15 05:00:57;;;;;;;2.65;1.58;;;5.10;99.90;;;;;;5073882;28;20294;-70
2021/03/15 05:03:25;;;;;;;3.70;2.20;;;5.20;99.90;;;;;;5073854;28;20287;-69
2021/03/15 05:05:54;;;;;;;3.58;2.22;;;5.20;99.90;;;;;;5073881;28;20209;-69
2021/03/15 05:08:25;;;;;;;3.22;1.80;;;5.20;99.90;;;;;;5073809;28;20210;-69
2021/03/15 05:10:53;;;;;;;2.28;1.88;;;5.20;99.90;;;;;;5073644;28;20206;-69
2021/03/15 05:13:20;;;;;;;2.70;2.50;;;5.20;99.90;;;;;;5073452;28;20654;-69
2021/03/15 05:15:47;;;;;;;3.58;2.28;;;5.20;99.90;;;;;;5073733;28;20228;-69
2021/03/15 05:18:14;;;;;;;3.63;2.35;;;5.20;99.90;;;;;;5073553;28;20681;-67
2021/03/15 05:20:41;;;;;;;3.35;2.42;;;5.10;99.90;;;;;;5073673;28;20202;-67
2021/03/15 05:23:09;;;;;;;4.13;2.17;;;5.10;99.90;;;;;;5073611;28;20226;-67
2021/03/15 05:25:38;;;;;;;1.75;1.30;;;5.10;99.90;;;;;;5073576;28;20719;-67
2021/03/15 05:28:06;;;;;;;2.53;1.90;;;5.10;99.90;;;;;;5073719;28;20198;-67
2021/03/15 05:30:34;;;;;;;2.72;1.90;;;5.10;99.90;;;;;;5073599;28;20233;-67
2021/03/15 05:33:02;;;;;;;2.85;1.95;;;5.10;99.90;;;;;;5073599;28;20257;-69
2021/03/15 05:35:30;;;;;;;2.63;2.15;;;5.10;99.90;;;;;;5073481;28;20207;-69
2021/03/15 05:37:58;;;;;;;2.63;1.88;;;5.10;99.90;;;;;;5073326;28;20234;-69
2021/03/15 05:40:25;;;;;;;2.38;2.17;;;5.10;99.90;;;;;;5073353;28;20199;-69
2021/03/15 05:43:33;;;;;;;1.95;1.67;;;5.00;99.90;;;;;;5075213;28;20227;-69
2021/03/15 05:46:33;;;;;;;8.15;3.83;;;5.00;99.90;;;;;;5015267;28;20715;-70
2021/03/15 05:49:47;;;;;;;4.15;2.70;;;5.00;99.90;;;;;;5015513;28;20223;-70
2021/03/15 05:52:27;;;;;;;4.32;2.00;;;5.00;99.90;;;;;;5077448;28;20238;-69
2021/03/15 05:55:23;;;;;;;4.22;2.10;;;5.00;99.90;;;;;;5077496;28;20268;-70
2021/03/15 05:58:41;;;;;;;2.63;2.00;;;5.10;99.90;;;;;;5077273;28;20298;-69
2021/03/15 06:01:31;;;;;;;3.88;2.63;;;5.00;99.90;;;;;;5077268;28;20199;-69
2021/03/15 06:04:34;;;;;;;2.22;1.92;;;5.00;99.90;;;;;;5077283;28;20215;-69
2021/03/15 06:07:03;;;;;;;2.63;1.70;;;4.90;99.90;;;;;;5076958;28;20207;-70
2021/03/15 06:09:30;;;;;;;4.00;2.17;;;4.90;99.90;;;;;;5077082;28;20203;-69
2021/03/15 06:12:02;;;;;;;2.35;1.70;;;4.80;99.90;;;;;;5077076;28;20230;-69
2021/03/15 06:14:31;;;;;;;5.18;2.35;;;4.90;99.90;;;;;;5077760;28;20187;-70
2021/03/15 06:16:58;;;;;;;5.95;2.00;;;4.90;99.90;;;;;;5076780;28;20293;-69
2021/03/15 06:19:25;;;;;;;4.50;2.40;;;4.90;99.90;;;;;;5076863;28;20206;-69
2021/03/15 06:21:52;;;;;;;5.35;2.17;;;4.90;99.90;;;;;;5077025;28;20222;-70
2021/03/15 06:24:19;;;;;;;4.43;1.85;;;4.90;99.90;;;;;;5076645;28;20223;-70
2021/03/15 06:26:46;;;;;;;2.22;1.80;;;4.90;99.90;;;;;;5076800;28;20209;-70
2021/03/15 06:29:13;;;;;;;3.75;2.20;;;4.90;99.90;;;;;;5076833;28;20217;-70
2021/03/15 06:31:49;;;;;;;2.70;2.25;;;5.00;99.90;;;;;;5076681;28;20298;-70
2021/03/15 06:34:16;;;;;;;3.13;1.92;;;4.90;99.90;;;;;;5076483;28;20702;-70
2021/03/15 06:36:43;;;;;;;2.85;2.10;;;5.00;99.90;;;;;;5076359;28;20293;-70
2021/03/15 06:39:11;;;;;;;2.75;2.00;;;4.90;99.90;;;;;;5076608;28;20246;-70
2021/03/15 06:41:41;;;;;;;2.78;2.05;;;4.90;99.90;;;;;;5076314;28;20729;-70
2021/03/15 06:44:08;;;;;;;1.95;1.85;;;4.90;99.90;;;;;;5076519;28;20233;-70
2021/03/15 06:46:35;;;;;;;3.60;1.98;;;4.90;99.90;;;;;;5076150;28;20313;-70
2021/03/15 06:49:02;;;;;;;3.58;1.80;;;4.80;99.90;;;;;;5076320;28;20203;-70
2021/03/15 06:51:28;;;;;;;5.45;1.95;;;4.90;99.90;;;;;;5076410;28;20203;-70
2021/03/15 06:53:55;;;;;;;2.25;1.48;;;4.90;99.90;;;;;;5075870;28;20195;-70
2021/03/15 06:56:21;;;;;;;2.33;1.75;;;4.90;99.90;;;;;;5076037;28;20209;-70
2021/03/15 06:58:49;;;;;;;3.80;2.15;;;5.00;99.90;;;;;;5076267;28;20290;-67
2021/03/15 07:01:18;;;;;;;5.60;2.08;;;5.10;99.90;;;;;;5076263;28;20665;-67
2021/03/15 07:03:47;;;;;;;2.22;1.75;;;5.20;99.90;;;;;;5076130;28;20759;-67
2021/03/15 07:06:18;;;;;;;2.83;1.98;;;5.20;99.90;;;;;;5076593;28;20202;-68
2021/03/15 07:08:45;;;;;;;2.45;2.00;;;5.20;99.90;;;;;;5076705;28;20203;-68
2021/03/15 07:11:19;;;;;;;4.45;2.10;;;5.30;99.90;;;;;;5076690;28;20684;-68
2021/03/15 07:13:46;;;;;;;1.88;1.50;;;5.40;99.90;;;;;;5076282;28;20237;-68
2021/03/15 07:16:23;;;;;;;1.70;1.60;;;5.40;99.90;;;;;;5076410;28;20234;-68
2021/03/15 07:18:50;;;;;;;1.42;1.33;;;5.50;99.90;;;;;;5076701;28;20289;-68
2021/03/15 07:21:34;;;;;;;2.10;1.33;;;5.60;99.90;;;;;;5076600;28;20294;-67
2021/03/15 07:24:01;;;;;;;1.35;1.25;;;5.70;99.90;;;;;;5076318;28;20210;-68
2021/03/15 07:26:28;;;;;;;2.00;1.33;;;5.70;99.90;;;;;;5076306;28;20213;-68
2021/03/15 07:28:55;;;;;;;2.95;1.08;;;5.80;99.90;;;;;;5076265;28;20583;-67
2021/03/15 07:31:23;;;;;;;1.90;1.10;;;5.80;99.90;;;;;;5075747;28;20207;-67
2021/03/15 07:34:09;;;;;;;1.13;1.02;;;5.80;99.90;;;;;;5075558;28;20701;-67
2021/03/15 07:36:46;;;;;;;1.30;1.20;;;5.80;99.90;;;;;;5075523;28;20647;-67
2021/03/15 07:39:13;;;;;;;1.10;1.00;;;5.70;99.90;;;;;;5075437;28;20337;-67
2021/03/15 07:41:40;;;;;;;3.78;1.20;;;5.60;99.90;;;;;;5075129;28;20205;-67
2021/03/15 07:44:20;;;;;;;0.95;0.95;;;5.40;99.90;;;;;;5075323;28;20222;-67
2021/03/15 07:46:46;;;;;;;0.95;0.88;;;5.20;99.90;;;;;;5075010;28;20217;-67
2021/03/15 07:49:31;;;;;;;2.15;1.23;;;5.10;99.90;;;;;;5075247;28;20206;-67
2021/03/15 07:52:03;;;;;;;0.73;0.73;;;5.00;99.90;;;;;;5075212;28;20275;-67
2021/03/15 07:54:32;;;;;;;0.63;0.63;;;5.00;99.90;;;;;;5075070;28;20214;-67
2021/03/15 07:57:18;;;;;;;0.93;0.70;;;5.10;99.90;;;;;;5074751;28;20285;-67
2021/03/15 07:59:45;;;;;;;1.55;0.85;;;5.10;99.90;;;;;;5074701;28;20220;-68
2021/03/15 08:02:16;;;;;;;2.78;1.10;;;5.10;99.90;;;;;;5075051;28;20309;-67
2021/03/15 08:04:43;;;;;;;1.05;0.95;;;5.10;99.90;;;;;;5074378;28;20203;-67
2021/03/15 08:07:12;;;;;;;2.35;1.10;;;5.10;99.90;;;;;;5074621;28;20676;-68
2021/03/15 08:09:41;;;;;;;1.52;1.08;;;5.20;99.90;;;;;;5074804;28;20249;-68
2021/03/15 08:12:10;;;;;;;0.80;0.80;;;5.30;99.90;;;;;;5074847;28;20296;-67
2021/03/15 08:14:38;;;;;;;1.00;0.93;;;5.30;99.90;;;;;;5074862;28;20199;-67
2021/03/15 08:17:08;;;;;;;1.42;1.08;;;5.50;99.90;;;;;;5074627;28;20213;-67
2021/03/15 08:19:36;;;;;;;1.30;0.82;;;5.60;99.90;;;;;;5074706;28;20206;-68
2021/03/15 08:22:04;;;;;;;1.45;0.90;;;5.80;99.90;;;;;;5074388;28;20226;-67
2021/03/15 08:24:36;;;;;;;2.55;1.80;;;6.00;99.90;;;;;;5074624;28;20268;-67
2021/03/15 08:27:03;;;;;;;1.38;0.82;;;6.00;99.90;;;;;;5074243;28;20294;-67
2021/03/15 08:29:34;;;;;;;1.00;1.00;;;6.00;99.90;;;;;;5074213;28;20203;-67
2021/03/15 08:32:02;;;;;;;1.02;1.00;;;6.00;99.90;;;;;;5074206;28;20762;-67
2021/03/15 08:34:30;;;;;;;1.05;0.90;;;6.10;99.90;;;;;;5074441;28;20205;-67
2021/03/15 08:36:56;;;;;;;1.95;1.27;;;6.20;99.90;;;;;;5074092;28;20229;-67
2021/03/15 08:39:39;;;;;;;3.03;1.30;;;6.40;99.90;;;;;;5074198;28;20692;-67
2021/03/15 08:42:22;;;;;;;1.77;0.90;;;6.40;99.90;;;;;;5073918;28;20257;-67
2021/03/15 08:44:49;;;;;;;0.90;0.90;;;6.40;99.90;;;;;;5074112;28;20285;-67
2021/03/15 08:47:48;;;;;;;0.90;0.90;;;6.40;99.90;;;;;;5073880;28;20199;-67
2021/03/15 08:50:44;;;;;;;1.00;0.77;;;6.30;99.90;;;;;;5074111;28;20210;-67
2021/03/15 08:53:10;;;;;;;0.88;0.65;;;6.30;99.90;;;;;;5074121;28;20612;-67
2021/03/15 08:55:48;;;;;;;1.10;0.93;;;6.30;99.90;;;;;;5074100;28;20206;-67
2021/03/15 08:58:36;;;;;;;0.88;0.80;;;6.30;99.90;;;;;;5073769;28;20233;-67
2021/03/15 09:01:03;;;;;;;0.98;0.65;;;6.30;99.90;;;;;;5074016;28;20301;-67
2021/03/15 09:03:49;;;;;;;0.73;0.73;;;6.20;99.90;;;;;;5073855;28;20227;-67
2021/03/15 09:06:36;;;;;;;1.50;0.80;;;6.10;99.90;;;;;;5073634;28;20213;-67
2021/03/15 09:09:04;;;;;;;1.60;1.05;;;6.10;99.90;;;;;;5074025;28;20210;-67
2021/03/15 09:11:49;;;;;;;1.15;1.05;;;6.10;99.90;;;;;;5073818;28;20235;-67
2021/03/15 09:14:53;;;;;;;1.85;1.35;;;6.20;99.90;;;;;;5073481;28;20203;-67
2021/03/15 09:17:35;;;;;;;1.48;1.00;;;6.30;99.90;;;;;;5073472;28;20203;-67
2021/03/15 09:20:18;;;;;;;2.17;1.02;;;6.40;99.90;;;;;;5073738;28;20569;-67
2021/03/15 09:22:45;;;;;;;1.30;1.00;;;6.50;99.90;;;;;;5073391;28;20241;-67
2021/03/15 09:25:22;;;;;;;0.80;0.75;;;6.50;99.90;;;;;;5073711;28;20206;-68
2021/03/15 09:27:54;;;;;;;1.30;1.20;;;6.60;99.90;;;;;;5073522;28;20202;-67
2021/03/15 09:30:24;;;;;;;0.73;0.73;;;6.70;99.90;;;;;;5073645;28;20209;-67
2021/03/15 09:32:51;;;;;;;1.13;0.80;;;6.70;99.90;;;;;;5073357;28;20215;-67
2021/03/15 09:35:29;;;;;;;2.33;0.88;;;6.80;99.90;;;;;;5073476;28;20199;-67
2021/03/15 09:38:02;;;;;;;0.70;0.70;;;6.80;99.90;;;;;;5073215;28;20575;-67
2021/03/15 09:40:32;;;;;;;0.70;0.70;;;6.80;99.90;;;;;;5073529;28;20210;-67
2021/03/15 09:43:00;;;;;;;0.55;0.55;;;6.80;99.90;;;;;;5073210;28;20330;-67
2021/03/15 09:45:32;;;;;;;0.57;0.45;;;6.80;99.90;;;;;;5073230;28;20217;-67
2021/03/15 09:47:59;;;;;;;1.25;0.70;;;6.90;99.90;;;;;;5073421;28;20194;-67
2021/03/15 09:50:27;;;;;;;0.75;0.75;;;6.90;99.90;;;;;;5073337;28;20337;-67
2021/03/15 09:53:04;;;;;;;1.00;0.98;;;7.00;99.90;;;;;;5073404;28;20233;-67
2021/03/15 09:55:31;;;;;;;0.95;0.77;;;7.10;99.90;;;;;;5073430;28;20203;-67
2021/03/15 09:58:03;;;;;;;1.83;1.20;;;7.10;99.90;;;;;;5073196;28;20225;-67
2021/03/15 10:00:30;;;;;;;1.70;0.70;;;7.10;99.90;;;;;;5073340;28;20203;-67
2021/03/15 10:02:56;;;;;;;0.73;0.70;;;7.10;99.90;;;;;;5073032;28;20318;-67
2021/03/15 10:05:22;;;;;;;1.00;1.00;;;7.10;99.90;;;;;;5073271;28;20305;-67
2021/03/15 10:07:49;;;;;;;1.35;0.90;;;7.00;99.90;;;;;;5073117;28;20210;-67
2021/03/15 10:10:17;;;;;;;1.38;1.00;;;7.10;99.90;;;;;;5073209;28;20198;-67
2021/03/15 10:12:44;;;;;;;1.42;1.20;;;7.10;99.90;;;;;;5073122;28;20222;-67
2021/03/15 10:15:13;;;;;;;2.08;1.30;;;7.10;99.90;;;;;;5073242;28;20199;-67
2021/03/15 10:17:40;;;;;;;1.40;1.30;;;7.20;99.90;;;;;;5072808;28;20573;-67
2021/03/15 10:20:10;;;;;;;1.33;1.00;;;7.20;99.90;;;;;;5073371;28;20230;-67
2021/03/15 10:22:37;;;;;;;1.42;1.30;;;7.20;99.90;;;;;;5072842;28;20225;-67
2021/03/15 10:25:05;;;;;;;2.35;1.38;;;7.20;99.90;;;;;;5072879;28;20211;-67
2021/03/15 10:27:31;;;;;;;1.15;1.02;;;7.20;99.90;;;;;;5072699;28;20732;-67
2021/03/15 10:30:00;;;;;;;3.17;1.40;;;7.20;99.90;;;;;;5076505;28;20629;-67
2021/03/15 10:32:29;;;;;;;1.73;1.20;;;7.20;99.90;;;;;;5076378;28;20250;-67
2021/03/15 10:34:57;;;;;;;1.20;1.10;;;7.20;99.90;;;;;;5076694;28;20247;-67
2021/03/15 10:37:25;;;;;;;2.13;1.35;;;7.20;99.90;;;;;;5076383;28;20737;-67
2021/03/15 10:39:54;;;;;;;2.08;1.20;;;7.20;99.90;;;;;;5076606;28;20268;-67
2021/03/15 10:42:21;;;;;;;1.60;1.35;;;7.20;99.90;;;;;;5076407;28;20229;-67
2021/03/15 10:44:48;;;;;;;2.67;1.50;;;7.30;99.90;;;;;;5076385;28;20647;-67
2021/03/15 10:47:26;;;;;;;1.25;0.70;;;7.40;99.90;;;;;;5076291;28;20285;-67
2021/03/15 10:49:53;;;;;;;1.50;1.40;;;7.40;99.90;;;;;;5076408;28;20207;-68
2021/03/15 10:52:30;;;;;;;1.98;1.42;;;7.30;99.90;;;;;;5076228;28;20244;-68
2021/03/15 10:55:09;;;;;;;1.85;0.95;;;7.40;99.90;;;;;;5076061;28;20252;-68
2021/03/15 10:57:35;;;;;;;1.60;1.20;;;7.40;99.90;;;;;;5076181;28;20644;-68
2021/03/15 11:00:01;;;;;;;1.40;1.30;;;7.40;99.90;;;;;;5076084;28;20665;-68
2021/03/15 11:02:28;;;;;;;1.83;1.20;;;7.60;99.90;;;;;;5076418;28;20231;-68
2021/03/15 11:04:57;;;;;;;1.48;1.00;;;7.80;99.90;;;;;;5076141;28;20313;-68
2021/03/15 11:07:26;;;;;;;1.40;1.30;;;8.10;99.90;;;;;;5075746;28;20226;-68
2021/03/15 11:09:57;;;;;;;0.95;0.93;;;8.10;99.90;;;;;;5076534;28;20657;-68
2021/03/15 11:12:41;;;;;;;1.80;1.30;;;8.10;99.90;;;;;;5075925;28;20324;-68
2021/03/15 11:15:23;;;;;;;3.83;1.30;;;7.90;99.90;;;;;;5076233;28;20218;-68
2021/03/15 11:18:05;;;;;;;1.10;1.00;;;7.80;99.90;;;;;;5073149;28;20289;-68
2021/03/15 11:20:49;;;;;;;2.47;1.17;;;7.70;99.90;;;;;;5075945;28;20546;-68
2021/03/15 11:23:28;;;;;;;1.17;1.05;;;7.70;99.90;;;;;;5074000;28;20301;-68
2021/03/15 11:26:07;;;;;;;2.50;1.20;;;7.80;99.90;;;;;;5075817;28;20293;-69
2021/03/15 11:28:36;;;;;;;2.13;1.80;;;7.90;99.90;;;;;;5075499;28;20202;-68
2021/03/15 11:31:02;;;;;;;2.35;1.30;;;7.80;99.90;;;;;;5075712;28;20225;-68
2021/03/15 11:33:29;;;;;;;2.05;1.30;;;7.90;99.90;;;;;;5075653;28;20229;-68
2021/03/15 11:35:58;;;;;;;1.40;1.30;;;8.00;99.90;;;;;;5075432;28;20203;-68
2021/03/15 11:38:26;;;;;;;1.60;1.50;;;7.90;99.90;;;;;;5075597;28;20716;-68
2021/03/15 11:40:53;;;;;;;1.65;1.40;;;7.90;99.90;;;;;;5075444;28;20309;-68
2021/03/15 11:43:20;;;;;;;1.77;1.67;;;7.90;99.90;;;;;;5075070;28;20680;-68
2021/03/15 11:45:47;;;;;;;2.65;1.98;;;7.90;99.90;;;;;;5075292;28;20211;-68
2021/03/15 11:48:13;;;;;;;5.10;1.90;;;7.90;99.90;;;;;;5075047;28;20245;-68
2021/03/15 11:50:40;;;;;;;1.88;1.73;;;7.90;99.90;;;;;;5075344;28;20247;-68
2021/03/15 11:53:08;;;;;;;1.80;1.70;;;7.90;99.90;;;;;;5074998;28;20309;-68
2021/03/15 11:55:35;;;;;;;2.35;1.60;;;7.90;99.90;;;;;;5075148;28;20205;-68
2021/03/15 11:58:01;;;;;;;1.90;1.60;;;7.80;99.90;;;;;;5074792;28;20327;-68
2021/03/15 12:00:29;;;;;;;2.10;1.90;;;7.80;99.90;;;;;;5075131;28;20225;-68
2021/03/15 12:02:55;;;;;;;1.50;1.40;;;7.70;99.90;;;;;;5074776;28;20313;-68
2021/03/15 12:05:22;;;;;;;3.00;1.50;;;7.70;99.90;;;;;;5075020;28;20198;-68
2021/03/15 12:07:48;;;;;;;1.90;1.75;;;7.80;99.90;;;;;;5074485;28;20207;-68
2021/03/15 12:10:16;;;;;;;3.30;1.85;;;8.00;99.90;;;;;;5074863;28;20237;-68
2021/03/15 12:12:42;;;;;;;1.05;0.90;;;8.40;99.90;;;;;;5074541;28;20218;-68
2021/03/15 12:15:11;;;;;;;1.67;1.58;;;9.30;99.90;;;;;;5074841;28;20207;-68
2021/03/15 12:17:38;;;;;;;1.58;1.48;;;9.60;99.90;;;;;;5074560;28;20204;-68
2021/03/15 12:20:06;;;;;;;3.05;1.83;;;9.40;99.90;;;;;;5074669;28;20297;-68
2021/03/15 12:22:32;;;;;;;2.63;1.90;;;9.30;99.90;;;;;;5074454;28;20227;-68
2021/03/15 12:24:58;;;;;;;1.48;1.25;;;9.20;99.90;;;;;;5074660;28;20231;-68
2021/03/15 12:27:26;;;;;;;2.00;1.80;;;8.70;99.90;;;;;;5074286;28;20297;-68
2021/03/15 12:29:52;;;;;;;2.58;1.65;;;8.40;99.90;;;;;;5074206;28;20293;-68
2021/03/15 12:32:19;;;;;;;2.53;2.10;;;8.20;99.90;;;;;;5074268;28;20223;-68
2021/03/15 12:34:45;;;;;;;3.05;1.75;;;8.10;99.90;;;;;;5074516;28;20203;-68
2021/03/15 12:37:11;;;;;;;2.45;2.25;;;8.00;99.90;;;;;;5074059;28;20206;-68
2021/03/15 12:39:38;;;;;;;3.42;2.40;;;8.10;99.90;;;;;;5074064;28;20206;-68
2021/03/15 12:42:05;;;;;;;2.60;2.25;;;8.10;99.90;;;;;;5074182;28;20223;-68
2021/03/15 12:44:32;;;;;;;1.75;1.65;;;8.10;99.90;;;;;;5074158;28;20343;-68
2021/03/15 12:46:59;;;;;;;4.20;2.25;;;8.30;99.90;;;;;;5073824;28;20202;-68
2021/03/15 12:49:25;;;;;;;3.03;2.35;;;8.40;99.90;;;;;;5073772;28;20206;-68
2021/03/15 12:51:51;;;;;;;2.25;2.05;;;8.40;99.90;;;;;;5073654;28;20233;-68
2021/03/15 12:54:18;;;;;;;2.92;2.10;;;8.40;99.90;;;;;;5074157;28;20205;-68
2021/03/15 12:56:44;;;;;;;2.50;2.03;;;8.30;99.90;;;;;;5073916;28;20293;-69
2021/03/15 12:59:12;;;;;;;2.58;1.25;;;8.50;99.90;;;;;;5074096;28;20206;-68
2021/03/15 13:01:39;;;;;;;2.78;2.13;;;8.50;99.90;;;;;;5073921;28;20220;-68
2021/03/15 13:04:05;;;;;;;1.42;1.33;;;8.60;99.90;;;;;;5073841;28;20233;-68
2021/03/15 13:06:32;;;;;;;2.70;2.35;;;8.40;99.90;;;;;;5073737;28;20287;-68
2021/03/15 13:08:58;;;;;;;2.88;2.50;;;8.20;99.90;;;;;;5074068;28;20233;-68
2021/03/15 13:11:24;;;;;;;3.42;2.22;;;8.10;99.90;;;;;;5073880;28;20591;-68
2021/03/15 13:13:51;;;;;;;2.70;2.15;;;8.30;99.90;;;;;;5073831;28;20323;-68
2021/03/15 13:16:17;;;;;;;2.40;2.00;;;8.30;99.90;;;;;;5073619;28;20319;-68